CYVM/YVM METAR and TAF weather

Enter ICAO airport designator
Station Type Date Time Source
CYVM METAR 2019/12/07 10:00 UTC NOAA

CYVM 071000Z AUTO 12002KT 9SM OVC029 M18/M20 A2968 RMK SLP054


Station Type Date Time Source
CYVM Decoded METAR 2019/12/07 10:00 UTC NOAA

Broughton Island Airport, Canada (CYVM) 67-33N 064-02W
Dec 07, 2019 - 05:00 AM EST / 2019.12.07 1000 UTC
Wind: from the ESE (120 degrees) at 2 MPH (2 KT):0
Visibility: 9 mile(s):0
Sky conditions: overcast
Temperature: 0 F (-18 C)
Dew Point: -4 F (-20 C)
Relative Humidity: 84%
Pressure (altimeter): 29.68 in. Hg (1005 hPa)
ob: CYVM 071000Z AUTO 12002KT 9SM OVC029 M18/M20 A2968 RMK SLP054
cycle: 10

Station Type Date Time Source
CYVM TAF 2019/12/07 07:39 UTC NOAA

TAF CYVM 070638Z 0707/0719 13005KT P6SM OVC025
TEMPO 0707/0719 P6SM -SN OVC020
RMK FCST BASED ON AUTO OBS. NXT FCST BY 071300Z

Example: see airport list